TimeMST,TemperatureF,Dew PointF,Humidity,Sea Level PressureIn,VisibilityMPH,Wind Direction,Wind SpeedMPH,Gust SpeedMPH,PrecipitationIn,Events,Conditions,WindDirDegrees,DateUTC
12:53 AM,35.1,14.0,42,29.79,10.0,ESE,3.5,-,N/A,,Clear,120,2013-03-07 07:53:00
1:53 AM,32.0,14.0,48,29.80,10.0,Calm,Calm,-,N/A,,Clear,0,2013-03-07 08:53:00
2:53 AM,34.0,14.0,44,29.78,10.0,Variable,4.6,-,N/A,,Clear,0,2013-03-07 09:53:00
3:53 AM,35.1,12.9,40,29.77,10.0,SSE,16.1,-,N/A,,Clear,150,2013-03-07 10:53:00
4:53 AM,32.0,12.9,45,29.83,10.0,SW,4.6,-,N/A,,Clear,230,2013-03-07 11:53:00
5:53 AM,33.1,12.0,42,29.85,10.0,South,5.8,-,N/A,,Clear,170,2013-03-07 12:53:00
6:53 AM,28.0,12.9,53,29.93,10.0,Calm,Calm,-,N/A,,Clear,0,2013-03-07 13:53:00
7:53 AM,32.0,12.9,45,29.91,10.0,Calm,Calm,-,N/A,,Clear,0,2013-03-07 14:53:00
8:53 AM,37.9,14.0,38,29.91,10.0,Calm,Calm,-,N/A,,Clear,0,2013-03-07 15:53:00
9:53 AM,42.1,16.0,35,29.87,10.0,Calm,Calm,-,N/A,,Clear,0,2013-03-07 16:53:00
11:53 AM,48.9,3.9,16,29.83,10.0,South,9.2,18.4,N/A,,Clear,180,2013-03-07 18:53:00
12:53 PM,48.9,5.0,17,29.80,10.0,South,8.1,20.7,N/A,,Partly Cloudy,190,2013-03-07 19:53:00
1:53 PM,50.0,3.0,15,29.80,10.0,WSW,8.1,17.3,N/A,,Clear,240,2013-03-07 20:53:00
2:53 PM,52.0,1.0,12,29.77,10.0,Calm,Calm,-,N/A,,Clear,0,2013-03-07 21:53:00
3:53 PM,50.0,3.9,15,29.76,10.0,Variable,5.8,-,N/A,,Clear,0,2013-03-07 22:53:00
4:53 PM,48.9,9.0,20,29.78,10.0,South,8.1,-,N/A,,Clear,170,2013-03-07 23:53:00
5:53 PM,42.1,12.9,31,29.82,10.0,SW,5.8,-,N/A,,Clear,230,2013-03-08 00:53:00
6:53 PM,37.9,16.0,41,29.90,10.0,South,9.2,-,N/A,,Clear,170,2013-03-08 01:53:00
7:53 PM,35.1,14.0,42,29.91,10.0,SW,6.9,-,N/A,,Clear,220,2013-03-08 02:53:00
8:53 PM,30.0,14.0,51,29.92,10.0,SW,9.2,-,N/A,,Clear,220,2013-03-08 03:53:00
10:53 PM,33.1,12.0,42,29.84,10.0,South,5.8,-,N/A,,Mostly Cloudy,190,2013-03-08 05:53:00
11:53 PM,34.0,12.9,42,29.81,10.0,SSE,8.1,-,N/A,,Overcast,160,2013-03-08 06:53:00